Time,TemperatureF,DewpointF,PressureIn,WindDirection,WindDirectionDegrees,WindSpeedMPH,WindSpeedGustMPH,Humidity,HourlyPrecipIn,Conditions,Clouds,dailyrainin,SoftwareType,DateUTC
2013-01-13 07:59:00,20.7,18.9,30.64,ENE,68,0.0,0.0,93,0.00,,,0.00,WUHU216HW,2013-01-13 15:59:00,
2013-01-13 08:04:00,20.7,18.9,30.65,ENE,68,0.0,0.0,93,0.00,,,0.00,WUHU216HW,2013-01-13 16:04:00,
2013-01-13 08:09:00,20.7,18.9,30.65,ENE,68,0.0,0.4,93,0.00,,,0.00,WUHU216HW,2013-01-13 16:09:00,
2013-01-13 08:14:00,20.9,19.1,30.65,ENE,68,0.0,0.4,93,0.00,,,0.00,WUHU216HW,2013-01-13 16:14:00,
2013-01-13 08:19:00,20.9,19.1,30.65,ENE,68,0.0,0.2,93,0.00,,,0.00,WUHU216HW,2013-01-13 16:19:00,
2013-01-13 08:24:00,20.9,19.1,30.65,ENE,68,0.0,0.2,93,0.00,,,0.00,WUHU216HW,2013-01-13 16:24:00,
2013-01-13 08:29:00,21.2,19.4,30.66,ENE,68,0.0,0.4,93,0.00,,,0.00,WUHU216HW,2013-01-13 16:29:00,
2013-01-13 08:34:00,21.4,19.6,30.66,ENE,68,0.2,0.4,93,0.00,,,0.00,WUHU216HW,2013-01-13 16:34:00,
2013-01-13 08:39:00,22.0,20.2,30.66,ENE,68,0.0,0.4,93,0.00,,,0.00,WUHU216HW,2013-01-13 16:39:00,
2013-01-13 08:44:00,22.0,20.0,30.66,ENE,68,0.0,0.4,92,0.00,,,0.00,WUHU216HW,2013-01-13 16:44:00,
2013-01-13 08:49:00,22.0,20.0,30.66,ENE,68,0.0,0.2,92,0.00,,,0.00,WUHU216HW,2013-01-13 16:49:00,
2013-01-13 08:54:00,22.1,20.3,30.66,ENE,68,0.2,0.4,93,0.00,,,0.00,WUHU216HW,2013-01-13 16:54:00,
2013-01-13 08:59:00,22.3,20.5,30.66,ENE,68,0.0,0.4,93,0.00,,,0.00,WUHU216HW,2013-01-13 16:59:00,
2013-01-13 09:04:00,22.3,20.5,30.66,ENE,68,0.4,0.4,93,0.00,,,0.00,WUHU216HW,2013-01-13 17:04:00,
2013-01-13 09:09:00,22.5,20.7,30.66,ENE,68,0.0,0.4,93,0.00,,,0.00,WUHU216HW,2013-01-13 17:09:00,
2013-01-13 09:14:00,22.5,20.7,30.66,ENE,68,0.0,0.4,93,0.00,,,0.00,WUHU216HW,2013-01-13 17:14:00,
2013-01-13 09:19:00,22.7,20.9,30.65,ENE,68,0.0,0.4,93,0.00,,,0.00,WUHU216HW,2013-01-13 17:19:00,
2013-01-13 09:24:00,22.9,21.1,30.65,ENE,68,0.0,0.4,93,0.00,,,0.00,WUHU216HW,2013-01-13 17:24:00,
2013-01-13 09:29:00,23.0,21.2,30.65,ENE,68,0.0,0.2,93,0.00,,,0.00,WUHU216HW,2013-01-13 17:29:00,
2013-01-13 09:34:00,23.0,21.2,30.65,ENE,68,0.0,0.2,93,0.00,,,0.00,WUHU216HW,2013-01-13 17:34:00,
2013-01-13 09:39:00,23.2,21.4,30.65,ENE,68,0.0,0.0,93,0.00,,,0.00,WUHU216HW,2013-01-13 17:39:00,
2013-01-13 09:44:00,23.4,21.6,30.65,ENE,68,0.0,0.2,93,0.00,,,0.00,WUHU216HW,2013-01-13 17:44:00,
2013-01-13 09:49:00,23.8,22.0,30.65,ENE,68,0.0,0.2,93,0.00,,,0.00,WUHU216HW,2013-01-13 17:49:00,